Observations for LONDON HEATHROW, United Kingdom (EGLL)

EGLL 260450Z AUTO 03001KT 9999 NCD 16/15 Q1018 NOSIG
EGLL 260420Z AUTO VRB01KT 9999 NCD 17/16 Q1018 NOSIG
EGLL 260350Z AUTO VRB03KT 9999 NCD 17/15 Q1018 NOSIG
EGLL 260320Z AUTO 10001KT 9999 NCD 17/15 Q1018 NOSIG
EGLL 260250Z AUTO 09002KT 9999 NCD 18/15 Q1019 NOSIG
EGLL 260220Z AUTO VRB01KT 9999 NCD 18/15 Q1019 NOSIG
EGLL 260150Z AUTO VRB02KT 9999 NCD 19/14 Q1019 NOSIG
EGLL 260120Z AUTO VRB02KT 9999 NCD 19/15 Q1019 NOSIG
EGLL 260050Z AUTO 18004KT 9999 NCD 20/15 Q1019 NOSIG
EGLL 260020Z AUTO 17003KT 9999 NCD 19/15 Q1019 NOSIG
EGLL 252350Z AUTO 21001KT 9999 NCD 20/14 Q1019 NOSIG
EGLL 252320Z AUTO 23001KT 9999 NCD 22/14 Q1019 NOSIG
EGLL 252250Z AUTO 22004KT 9999 NCD 22/14 Q1019 NOSIG
EGLL 252220Z AUTO 20004KT 150V260 9999 NCD 21/14 Q1019 NOSIG
EGLL 252150Z AUTO 23005KT 180V290 9999 NCD 22/14 Q1019 NOSIG
EGLL 252120Z AUTO 22005KT 160V280 9999 NCD 22/14 Q1019 NOSIG
EGLL 252050Z AUTO 23007KT 180V260 9999 NCD 24/13 Q1019 NOSIG
EGLL 252020Z AUTO 21006KT 140V260 9999 NCD 25/12 Q1019 NOSIG
EGLL 251950Z AUTO 21007KT 140V250 9999 NCD 26/10 Q1018 NOSIG
EGLL 251920Z AUTO 22007KT 180V250 9999 NCD 27/10 Q1018 NOSIG
EGLL 251850Z AUTO 21007KT 180V250 9999 NCD 28/09 Q1018 NOSIG
EGLL 251820Z AUTO 21009KT 170V250 9999 NCD 29/10 Q1018 NOSIG
EGLL 251750Z AUTO 21009KT 160V250 9999 NCD 30/11 Q1018 NOSIG
EGLL 251720Z AUTO 17008KT 130V240 9999 NCD 31/12 Q1018 NOSIG
EGLL 251650Z AUTO 21009KT 170V250 9999 NCD 32/11 Q1017 NOSIG
EGLL 251620Z AUTO 21009KT 160V250 9999 NCD 32/11 Q1017 NOSIG
EGLL 251550Z AUTO 17007KT 110V220 9999 NCD 32/12 Q1017 NOSIG
EGLL 251520Z AUTO 15008KT 110V210 9999 NCD 32/11 Q1017 NOSIG
EGLL 251450Z AUTO 15007KT 090V240 9999 NCD 33/11 Q1017 NOSIG
EGLL 251420Z AUTO 13007KT 070V190 9999 NCD 32/11 Q1017 NOSIG
EGLL 251350Z AUTO 14007KT 110V190 9999 NCD 33/11 Q1018 NOSIG
EGLL 251320Z AUTO 14007KT 110V190 9999 NCD 32/10 Q1018 NOSIG
EGLL 251250Z AUTO 16008G18KT 110V210 9999 NCD 32/10 Q1018 NOSIG 
EGLL 251220Z AUTO 17008G19KT 130V220 9999 NCD 32/11 Q1018 NOSIG 
EGLL 251150Z AUTO VRB08KT 9999 NCD 32/11 Q1018 NOSIG
EGLL 251120Z AUTO 13005KT 070V190 9999 NCD 30/12 Q1018 NOSIG
EGLL 251050Z AUTO VRB04KT 9999 NCD 30/13 Q1018 NOSIG
EGLL 251020Z AUTO VRB04KT 9999 NCD 29/14 Q1018 NOSIG
EGLL 250950Z AUTO 13004KT 090V200 9999 NCD 28/14 Q1018 NOSIG
EGLL 250920Z AUTO 11004KT 060V170 9999 NCD 25/15 Q1018 NOSIG
EGLL 250850Z AUTO 12006KT 090V150 9999 NCD 25/16 Q1018 NOSIG
EGLL 250820Z AUTO 12006KT 8000 NCD 23/16 Q1018 NOSIG
EGLL 250750Z AUTO VRB03KT 6000 NCD 21/16 Q1018 NOSIG
EGLL 250720Z 07004KT 5000 HZ NSC 20/16 Q1018 NOSIG  
EGLL 250650Z 08003KT 5000 HZ NSC 18/15 Q1018 NOSIG  
EGLL 250620Z VRB02KT 5000 HZ NSC 17/15 Q1017 NOSIG  
EGLL 250550Z AUTO 08003KT 6000 NCD 18/15 Q1017 NOSIG
EGLL 250520Z AUTO 09003KT 6000 NCD 18/15 Q1017 NOSIG
EGLL 250450Z AUTO 04002KT 7000 NCD 16/14 Q1017 NOSIG
EGLL 250420Z AUTO 03001KT 8000 NCD 17/14 Q1017 NOSIG